Estación Meteorológica Peña el Pijo (Robertgarden) [ 11/20/17 01:24:39 CET ]

Fecha Hora Presion(HPa) Temp (°C) Humedad % Rocio (°C) Viento ( m/s) Direccion Lluvia 1Hora(mm) Lluvia 24H(mm) LLuvia Total(mm)
2017-Nov-07 01:01:53 1009.600 1.3 76 -2.5         1468.01
2017-Nov-07 02:05:54 1009.400 1.0 76 -2.8         1468.01
2017-Nov-07 03:03:16 1008.600 0.1 77 -3.4         1468.01
2017-Nov-07 04:01:41 1008.400 0.6 78 -2.8         1468.01
2017-Nov-07 05:02:06 1008.200 -0.1 77 -3.6         1468.01
2017-Nov-07 06:01:43 1007.800 0.4 76 -3.4         1468.01
2017-Nov-07 07:01:35 1008.100 0.6 72 -3.9         1468.01
2017-Nov-07 08:01:43 1008.600 0.4 67 -5.0         1468.01
2017-Nov-07 09:01:44 1009.000 2.7 68 -2.6         1468.01
2017-Nov-07 10:01:44 1009.000 11.5 43 -0.7         1468.01
2017-Nov-07 11:01:41 1008.700 14.2 31 -2.7         1468.01
2017-Nov-07 12:01:47 1008.900 15.4 26 -4.2         1468.01
2017-Nov-07 13:01:36 1008.200 16.4 22 -5.5         1468.01
2017-Nov-07 14:01:53 1007.900 18.9 22 -3.5         1468.01
2017-Nov-07 15:01:29 1007.900 19.4 22 -3.0         1468.01
2017-Nov-07 16:01:53 1008.400 18.1 23 -3.6         1468.01
2017-Nov-07 17:01:45 1008.800 15.6 26 -4.1         1468.01
2017-Nov-07 18:01:43 1009.100 11.8 33 -4.0         1468.01
2017-Nov-07 19:01:46 1009.700 7.6 44 -4.0         1468.01
2017-Nov-07 20:01:33 1010.200 4.9 53 -3.9         1468.01
2017-Nov-07 21:01:52 1010.400 4.9 55 -3.4         1468.01
2017-Nov-07 22:01:45 1010.900 4.6 56 -3.5         1468.01
2017-Nov-07 23:01:44 1011.400 3.4 59 -3.9         1468.01

Temperatura Máxima:19°    Temperatura Mínima:
Presión Máxima:1011.400 Hpa    Presión Mínima:1007.800 Hpa


Volver